Time;durP1;ratioP1;P1;durP2;ratioP2;P2;SDS_P1;SDS_P2;PMS_P1;PMS_P2;Temp;Humidity;BMP_temperature;BMP_pressure;BME280_temperature;BME280_humidity;BME280_pressure;Samples;Min_cycle;Max_cycle;Signal;HPM_P1;HPM_P2
2021/08/29 00:02:13;;;;;;;3.97;2.30;;;16.60;99.90;;;;;;5055592;28;21005;-70
2021/08/29 00:04:40;;;;;;;6.90;2.57;;;16.70;99.90;;;;;;5054596;28;20538;-70
2021/08/29 00:07:07;;;;;;;5.20;1.73;;;16.70;99.90;;;;;;5054051;28;20466;-71
2021/08/29 00:09:35;;;;;;;5.83;2.53;;;16.70;99.90;;;;;;5059041;28;20770;-70
2021/08/29 00:12:02;;;;;;;5.40;2.83;;;16.80;99.90;;;;;;5068047;28;20519;-70
2021/08/29 00:14:29;;;;;;;5.97;3.07;;;16.80;99.90;;;;;;5064454;28;20542;-70
2021/08/29 00:16:56;;;;;;;5.03;1.93;;;16.60;99.90;;;;;;5058725;28;20919;-70
2021/08/29 00:19:23;;;;;;;3.40;2.40;;;16.60;99.90;;;;;;5063896;28;20562;-69
2021/08/29 00:21:50;;;;;;;3.50;2.23;;;16.50;99.90;;;;;;5059101;28;20447;-70
2021/08/29 00:24:17;;;;;;;5.00;1.80;;;16.50;99.90;;;;;;5077287;22;20593;-68
2021/08/29 00:26:45;;;;;;;4.57;2.60;;;16.50;99.90;;;;;;5061011;28;20541;-69
2021/08/29 00:29:12;;;;;;;3.93;2.30;;;16.40;99.90;;;;;;5063032;28;20971;-69
2021/08/29 00:31:39;;;;;;;2.60;2.23;;;16.40;99.90;;;;;;5067951;28;20542;-67
2021/08/29 00:34:06;;;;;;;4.30;3.10;;;16.40;99.90;;;;;;5064925;28;22215;-68
2021/08/29 00:36:33;;;;;;;2.60;2.40;;;16.30;99.90;;;;;;5060190;28;21197;-67
2021/08/29 00:39:00;;;;;;;6.83;2.00;;;16.40;99.90;;;;;;5062234;28;20509;-69
2021/08/29 00:41:28;;;;;;;2.93;2.20;;;16.40;99.90;;;;;;5064735;28;20439;-69
2021/08/29 00:43:57;;;;;;;9.00;2.17;;;16.30;99.90;;;;;;5061515;28;20482;-69
2021/08/29 00:46:25;;;;;;;8.30;2.63;;;16.40;99.90;;;;;;5059429;28;20491;-67
2021/08/29 00:48:53;;;;;;;7.27;2.67;;;16.50;99.90;;;;;;5063376;28;20966;-68
2021/08/29 00:51:20;;;;;;;7.50;2.40;;;16.40;99.90;;;;;;5065183;28;20544;-68
2021/08/29 00:53:48;;;;;;;4.43;3.27;;;16.40;99.90;;;;;;5067483;28;20557;-70
2021/08/29 00:56:15;;;;;;;8.03;2.97;;;16.40;99.90;;;;;;5062197;28;20491;-68
2021/08/29 00:58:43;;;;;;;6.00;2.97;;;16.40;99.90;;;;;;5061898;28;20541;-68
2021/08/29 01:01:14;;;;;;;8.53;4.50;;;16.30;99.90;;;;;;5055985;28;20452;-68
2021/08/29 01:03:42;;;;;;;3.43;3.03;;;16.40;99.90;;;;;;5064277;28;21949;-68
2021/08/29 01:06:18;;;;;;;4.67;2.53;;;16.40;99.90;;;;;;5065937;28;20530;-68
2021/08/29 01:08:51;;;;;;;4.00;2.83;;;16.40;99.90;;;;;;5061008;28;20435;-69
2021/08/29 01:11:22;;;;;;;6.40;3.00;;;16.50;99.90;;;;;;5066008;28;20478;-68
2021/08/29 01:13:51;;;;;;;3.50;2.40;;;16.40;99.90;;;;;;5068256;28;20451;-68
2021/08/29 01:16:22;;;;;;;4.70;2.87;;;16.40;99.90;;;;;;5060952;28;20494;-68
2021/08/29 01:18:53;;;;;;;2.60;2.20;;;16.30;99.90;;;;;;5065519;28;20453;-69
2021/08/29 01:21:22;;;;;;;5.77;3.20;;;16.40;99.90;;;;;;5065307;28;20459;-68
2021/08/29 01:23:52;;;;;;;3.97;2.50;;;16.40;99.90;;;;;;5059631;28;21065;-69
2021/08/29 01:26:21;;;;;;;4.40;2.63;;;16.40;99.90;;;;;;5063427;28;20482;-69
2021/08/29 01:28:55;;;;;;;5.57;2.93;;;16.20;99.90;;;;;;5059973;28;20551;-69
2021/08/29 01:31:24;;;;;;;4.77;3.37;;;16.20;99.90;;;;;;5062489;28;20458;-69
2021/08/29 01:33:52;;;;;;;4.57;3.10;;;16.20;99.90;;;;;;5058407;28;21257;-68
2021/08/29 01:36:21;;;;;;;3.40;2.80;;;16.20;99.90;;;;;;5068585;28;20489;-68
2021/08/29 01:38:48;;;;;;;5.63;3.17;;;16.20;99.90;;;;;;5073400;28;20447;-68
2021/08/29 01:41:18;;;;;;;5.00;2.90;;;16.30;99.90;;;;;;5058784;28;20481;-68
2021/08/29 01:43:46;;;;;;;6.93;3.17;;;16.40;99.90;;;;;;5059577;28;20465;-67
2021/08/29 01:46:18;;;;;;;2.40;2.20;;;16.30;99.90;;;;;;5062638;28;20863;-69
2021/08/29 01:48:45;;;;;;;4.87;3.50;;;16.20;99.90;;;;;;5064565;28;20451;-68
2021/08/29 01:51:13;;;;;;;4.63;2.87;;;16.30;99.90;;;;;;5065286;28;20542;-68
2021/08/29 01:53:40;;;;;;;8.73;3.27;;;16.30;99.90;;;;;;5063666;28;20454;-67
2021/08/29 01:56:08;;;;;;;10.20;3.87;;;16.30;99.90;;;;;;5065202;28;20483;-68
2021/08/29 01:58:36;;;;;;;8.80;3.80;;;16.30;99.90;;;;;;5062775;28;20486;-68
2021/08/29 02:01:08;;;;;;;5.00;3.93;;;16.20;99.90;;;;;;5058587;28;21213;-68
2021/08/29 02:03:39;;;;;;;8.90;3.57;;;16.30;99.90;;;;;;5056993;28;21010;-67
2021/08/29 02:06:10;;;;;;;5.60;3.20;;;16.40;99.90;;;;;;5058078;28;20524;-68
2021/08/29 02:08:39;;;;;;;5.10;2.90;;;16.40;99.90;;;;;;5060959;28;20438;-69
2021/08/29 02:11:08;;;;;;;3.17;2.80;;;16.30;99.90;;;;;;5065290;28;20938;-68
2021/08/29 02:13:37;;;;;;;8.73;2.97;;;16.30;99.90;;;;;;5056442;28;21173;-68
2021/08/29 02:16:09;;;;;;;5.53;3.13;;;16.30;99.90;;;;;;5065273;28;20501;-67
2021/08/29 02:18:38;;;;;;;5.93;2.80;;;16.20;99.90;;;;;;5066276;28;20447;-67
2021/08/29 02:21:05;;;;;;;4.43;2.90;;;16.20;99.90;;;;;;5068120;28;20494;-67
2021/08/29 02:23:33;;;;;;;6.87;3.30;;;16.20;99.90;;;;;;5057030;28;20636;-68
2021/08/29 02:26:00;;;;;;;10.30;3.53;;;16.20;99.90;;;;;;5062028;28;20550;-68
2021/08/29 02:28:28;;;;;;;4.20;2.80;;;16.30;99.90;;;;;;5061379;28;20452;-68
2021/08/29 02:30:55;;;;;;;5.80;3.27;;;16.20;99.90;;;;;;5053251;28;20545;-68
2021/08/29 02:33:23;;;;;;;4.47;3.30;;;16.20;99.90;;;;;;5062269;28;20466;-69
2021/08/29 02:35:52;;;;;;;3.63;2.97;;;16.10;99.90;;;;;;5059865;28;20467;-67
2021/08/29 02:38:20;;;;;;;4.70;2.83;;;16.00;99.90;;;;;;5062264;28;20450;-68
2021/08/29 02:40:50;;;;;;;7.37;3.47;;;16.00;99.90;;;;;;5060084;28;20510;-68
2021/08/29 02:43:20;;;;;;;3.73;2.70;;;16.10;99.90;;;;;;5055867;28;20542;-67
2021/08/29 02:45:48;;;;;;;4.07;2.27;;;16.10;99.90;;;;;;5066740;28;20489;-67
2021/08/29 02:48:16;;;;;;;4.30;3.50;;;16.20;99.90;;;;;;5058717;28;20476;-67
2021/08/29 02:50:45;;;;;;;5.80;2.37;;;16.10;99.90;;;;;;5058438;28;20676;-68
2021/08/29 02:53:16;;;;;;;4.83;2.83;;;16.00;99.90;;;;;;5062712;28;20510;-67
2021/08/29 02:55:47;;;;;;;15.63;5.00;;;16.00;99.90;;;;;;5054339;28;20843;-67
2021/08/29 02:58:15;;;;;;;12.20;6.33;;;16.10;99.90;;;;;;5067638;28;20463;-68
2021/08/29 03:00:42;;;;;;;9.40;3.80;;;16.20;99.90;;;;;;5064499;28;20539;-69
2021/08/29 03:03:09;;;;;;;5.60;3.40;;;16.10;99.90;;;;;;5061342;28;20524;-68
2021/08/29 03:05:37;;;;;;;4.30;3.20;;;16.10;99.90;;;;;;5060439;28;20886;-68
2021/08/29 03:08:04;;;;;;;6.87;3.13;;;16.10;99.90;;;;;;5059979;28;20447;-68
2021/08/29 03:10:34;;;;;;;9.17;4.63;;;16.10;99.90;;;;;;5062893;28;20470;-68
2021/08/29 03:13:02;;;;;;;9.03;3.40;;;16.10;99.90;;;;;;5068841;28;20989;-68
2021/08/29 03:15:30;;;;;;;4.83;3.20;;;16.10;99.90;;;;;;5056632;28;20455;-71
2021/08/29 03:17:57;;;;;;;10.67;4.87;;;16.10;99.90;;;;;;5062597;28;20479;-75
2021/08/29 03:20:25;;;;;;;7.53;3.80;;;16.10;99.90;;;;;;5061994;28;20577;-72
2021/08/29 03:22:53;;;;;;;6.57;3.70;;;16.10;99.90;;;;;;5057580;28;21016;-75
2021/08/29 03:25:20;;;;;;;8.10;3.30;;;16.00;99.90;;;;;;5063535;28;21052;-73
2021/08/29 03:27:49;;;;;;;10.00;3.90;;;16.00;99.90;;;;;;5065088;28;20500;-70
2021/08/29 03:30:16;;;;;;;6.53;3.30;;;15.90;99.90;;;;;;5065588;28;20469;-72
2021/08/29 03:32:43;;;;;;;6.37;3.17;;;15.90;99.90;;;;;;5064598;28;20528;-71
2021/08/29 03:35:12;;;;;;;4.67;3.13;;;15.90;99.90;;;;;;5063666;28;20582;-71
2021/08/29 03:37:41;;;;;;;19.13;4.10;;;16.00;99.90;;;;;;5059101;28;20970;-71
2021/08/29 03:40:08;;;;;;;6.87;3.80;;;16.10;99.90;;;;;;5057069;28;20527;-75
2021/08/29 03:42:36;;;;;;;20.30;4.90;;;16.20;99.90;;;;;;5087323;28;20454;-70
2021/08/29 03:45:07;;;;;;;4.73;4.03;;;16.10;99.90;;;;;;5060724;28;20502;-71
2021/08/29 03:47:35;;;;;;;7.70;4.43;;;16.00;99.90;;;;;;5055566;28;20538;-71
2021/08/29 03:50:03;;;;;;;5.77;3.77;;;16.00;99.90;;;;;;5065401;28;20511;-74
2021/08/29 03:52:31;;;;;;;7.73;4.00;;;16.00;99.90;;;;;;5058446;28;20504;-71
2021/08/29 03:54:58;;;;;;;10.50;3.93;;;15.90;99.90;;;;;;5062214;28;21022;-71
2021/08/29 03:57:25;;;;;;;9.40;4.03;;;16.00;99.90;;;;;;5057123;28;20494;-70
2021/08/29 03:59:52;;;;;;;4.17;3.40;;;16.00;99.90;;;;;;5057491;28;20574;-73
2021/08/29 04:02:21;;;;;;;4.90;3.63;;;16.10;99.90;;;;;;5058458;28;20550;-71
2021/08/29 04:04:48;;;;;;;8.83;3.87;;;16.10;99.90;;;;;;5052366;28;20553;-74
2021/08/29 04:07:16;;;;;;;10.67;5.57;;;16.10;99.90;;;;;;5065231;28;20907;-71
2021/08/29 04:09:45;;;;;;;10.30;4.10;;;16.20;99.90;;;;;;5060179;28;20959;-72
2021/08/29 04:12:13;;;;;;;4.40;3.07;;;16.10;99.90;;;;;;5056912;28;20455;-71
2021/08/29 04:14:42;;;;;;;6.97;4.67;;;16.20;99.90;;;;;;5059473;28;20586;-73
2021/08/29 04:17:10;;;;;;;5.70;3.53;;;16.10;99.90;;;;;;5065598;28;20447;-70
2021/08/29 04:19:42;;;;;;;7.37;3.93;;;16.10;99.90;;;;;;5067265;28;20480;-71
2021/08/29 04:22:11;;;;;;;9.20;3.73;;;16.10;99.90;;;;;;5065949;28;20438;-71
2021/08/29 04:24:39;;;;;;;9.10;3.60;;;16.20;99.90;;;;;;5049983;28;20499;-75
2021/08/29 04:27:07;;;;;;;5.83;4.23;;;16.00;99.90;;;;;;5055224;28;20831;-72
2021/08/29 04:29:35;;;;;;;8.03;4.43;;;16.00;99.90;;;;;;5064111;28;20475;-72
2021/08/29 04:32:04;;;;;;;7.73;3.57;;;16.00;99.90;;;;;;5056966;28;20564;-71
2021/08/29 04:34:31;;;;;;;4.10;3.57;;;16.00;99.90;;;;;;5059891;28;20498;-76
2021/08/29 04:36:59;;;;;;;5.03;3.10;;;16.00;99.90;;;;;;5055450;28;20478;-72
2021/08/29 04:39:26;;;;;;;9.20;3.97;;;16.10;99.90;;;;;;5060084;28;20951;-76
2021/08/29 04:41:53;;;;;;;11.43;4.13;;;15.90;99.90;;;;;;5058253;28;20511;-71
2021/08/29 04:44:20;;;;;;;6.60;3.27;;;16.00;99.90;;;;;;5065602;28;20483;-76
2021/08/29 04:46:47;;;;;;;9.63;3.77;;;16.00;99.90;;;;;;5052129;28;20859;-71
2021/08/29 04:49:15;;;;;;;7.87;3.67;;;16.00;99.90;;;;;;5058769;28;20445;-71
2021/08/29 04:51:41;;;;;;;4.13;2.83;;;16.00;99.90;;;;;;5060469;28;21033;-73
2021/08/29 04:54:10;;;;;;;6.97;3.80;;;16.10;99.90;;;;;;5054087;28;20476;-71
2021/08/29 04:56:37;;;;;;;4.83;3.57;;;16.00;99.90;;;;;;5062043;28;20482;-71
2021/08/29 04:59:04;;;;;;;4.80;4.00;;;16.10;99.90;;;;;;5059795;28;20535;-72
2021/08/29 05:01:31;;;;;;;6.47;4.13;;;16.00;99.90;;;;;;5061861;28;20543;-72
2021/08/29 05:03:59;;;;;;;5.00;3.40;;;16.00;99.90;;;;;;5059954;28;20503;-71
2021/08/29 05:06:26;;;;;;;4.70;3.13;;;16.00;99.90;;;;;;5063557;28;20442;-70
2021/08/29 05:08:53;;;;;;;13.07;3.70;;;16.00;99.90;;;;;;5063604;28;20512;-71
2021/08/29 05:11:21;;;;;;;10.97;4.03;;;16.00;99.90;;;;;;5059969;28;20476;-77
2021/08/29 05:13:48;;;;;;;5.00;4.10;;;16.00;99.90;;;;;;5062876;28;20490;-71
2021/08/29 05:16:15;;;;;;;5.60;3.20;;;15.90;99.90;;;;;;5061243;28;20525;-73
2021/08/29 05:18:42;;;;;;;6.20;3.60;;;15.90;99.90;;;;;;5062327;28;20536;-71
2021/08/29 05:21:09;;;;;;;5.17;3.73;;;16.00;99.90;;;;;;5062385;28;20493;-71
2021/08/29 05:23:36;;;;;;;4.30;3.20;;;15.90;99.90;;;;;;5060931;28;20546;-73
2021/08/29 05:26:03;;;;;;;10.27;3.47;;;16.00;99.90;;;;;;5068034;28;20462;-72
2021/08/29 05:28:32;;;;;;;10.23;3.70;;;16.00;99.90;;;;;;5062728;28;20593;-71
2021/08/29 05:30:59;;;;;;;2.70;2.37;;;16.00;99.90;;;;;;5060953;28;20435;-71
2021/08/29 05:33:25;;;;;;;9.77;4.53;;;16.20;99.90;;;;;;5063669;28;20494;-77
2021/08/29 05:35:53;;;;;;;7.30;3.33;;;16.10;99.90;;;;;;5050935;28;20486;-71
2021/08/29 05:38:20;;;;;;;10.13;3.57;;;16.20;99.90;;;;;;5058395;28;20462;-72
2021/08/29 05:40:47;;;;;;;10.77;3.43;;;16.20;99.90;;;;;;5064988;28;20489;-71
2021/08/29 05:43:14;;;;;;;6.57;3.90;;;16.20;99.90;;;;;;5064099;28;20990;-72
2021/08/29 05:45:42;;;;;;;15.47;4.10;;;16.20;99.90;;;;;;5061190;28;20601;-74
2021/08/29 05:48:09;;;;;;;6.47;4.00;;;16.20;99.90;;;;;;5060677;28;20872;-75
2021/08/29 05:50:36;;;;;;;11.80;3.73;;;16.10;99.90;;;;;;5059637;28;20472;-71
2021/08/29 05:53:03;;;;;;;6.77;3.10;;;16.20;99.90;;;;;;5060699;28;20546;-72
2021/08/29 05:55:30;;;;;;;13.67;3.30;;;16.30;99.90;;;;;;5049792;28;20475;-71
2021/08/29 05:57:57;;;;;;;4.33;3.70;;;16.30;99.90;;;;;;5049096;28;20890;-74
2021/08/29 06:00:24;;;;;;;11.93;4.60;;;16.20;99.90;;;;;;5057397;28;20595;-70
2021/08/29 06:02:53;;;;;;;6.00;3.87;;;16.10;99.90;;;;;;5059023;28;20451;-73
2021/08/29 06:05:20;;;;;;;9.83;4.00;;;16.10;99.90;;;;;;5061297;28;20487;-71
2021/08/29 06:07:47;;;;;;;7.53;3.13;;;16.10;99.90;;;;;;5068342;28;20464;-71
2021/08/29 06:10:13;;;;;;;5.37;3.77;;;16.20;99.90;;;;;;5059534;28;20454;-71
2021/08/29 06:12:40;;;;;;;7.93;4.03;;;16.30;99.90;;;;;;5056317;28;20487;-71
2021/08/29 06:15:09;;;;;;;5.63;3.23;;;16.20;99.90;;;;;;5065258;28;20498;-72
2021/08/29 06:17:36;;;;;;;24.90;13.83;;;16.20;99.90;;;;;;5066553;28;20493;-71
2021/08/29 06:20:06;;;;;;;15.97;7.80;;;16.20;99.90;;;;;;5063649;28;20477;-73
2021/08/29 06:22:33;;;;;;;12.87;5.00;;;16.10;99.90;;;;;;5065685;28;20577;-71
2021/08/29 06:25:00;;;;;;;8.13;3.80;;;16.10;99.90;;;;;;5068586;28;20555;-73
2021/08/29 06:27:27;;;;;;;13.20;3.23;;;16.20;99.90;;;;;;5052915;28;20454;-71
2021/08/29 06:29:54;;;;;;;7.63;3.10;;;16.30;99.90;;;;;;5067211;28;20504;-71
2021/08/29 06:32:21;;;;;;;17.13;3.83;;;16.20;99.90;;;;;;5064686;28;20876;-72
2021/08/29 06:34:48;;;;;;;8.10;3.50;;;16.20;99.90;;;;;;5057284;28;20474;-71
2021/08/29 06:37:16;;;;;;;5.20;2.80;;;16.30;99.90;;;;;;5057783;28;20462;-71
2021/08/29 06:39:43;;;;;;;6.00;3.13;;;16.20;99.90;;;;;;5050907;28;20866;-71
2021/08/29 06:42:10;;;;;;;9.73;3.87;;;16.10;99.90;;;;;;5057685;28;20498;-76
2021/08/29 06:44:37;;;;;;;8.60;4.00;;;16.10;99.90;;;;;;5061447;28;20568;-74
2021/08/29 06:47:04;;;;;;;6.43;3.40;;;16.20;99.90;;;;;;5057809;28;20824;-72
2021/08/29 06:49:31;;;;;;;6.80;4.00;;;16.30;99.90;;;;;;5062874;28;20505;-72
2021/08/29 06:51:58;;;;;;;19.83;3.93;;;16.30;99.90;;;;;;5058608;28;20466;-72
2021/08/29 06:54:27;;;;;;;6.90;4.50;;;16.20;99.90;;;;;;5066641;28;20510;-73
2021/08/29 06:56:54;;;;;;;11.83;5.00;;;16.20;99.90;;;;;;5065993;28;20486;-74
2021/08/29 06:59:21;;;;;;;7.87;5.37;;;16.30;99.90;;;;;;5064390;28;20541;-74
2021/08/29 07:01:51;;;;;;;5.83;3.73;;;16.20;99.90;;;;;;5069662;28;20600;-73
2021/08/29 07:04:17;;;;;;;13.80;5.30;;;16.30;99.90;;;;;;5070518;28;20543;-74
2021/08/29 07:06:44;;;;;;;7.13;3.27;;;16.40;99.90;;;;;;5065324;28;20891;-73
2021/08/29 07:09:13;;;;;;;4.73;3.03;;;16.30;99.90;;;;;;5068368;28;20458;-71
2021/08/29 07:11:41;;;;;;;9.87;3.40;;;16.20;99.90;;;;;;5081917;28;20507;-73
2021/08/29 07:14:08;;;;;;;10.60;3.70;;;16.20;99.90;;;;;;5077413;28;20550;-75
2021/08/29 07:16:35;;;;;;;4.50;3.30;;;16.20;99.90;;;;;;5059627;28;20564;-73
2021/08/29 07:19:02;;;;;;;6.37;4.33;;;16.30;99.90;;;;;;5062580;28;20547;-72
2021/08/29 07:21:29;;;;;;;7.53;3.43;;;16.20;99.90;;;;;;5058370;28;20700;-73
2021/08/29 07:23:58;;;;;;;4.50;3.17;;;16.00;99.90;;;;;;5064239;28;20508;-73
2021/08/29 07:26:26;;;;;;;9.13;3.50;;;16.00;99.90;;;;;;5076081;28;20446;-73
2021/08/29 07:28:55;;;;;;;4.63;3.03;;;16.10;99.90;;;;;;5066820;28;20543;-74
2021/08/29 07:31:22;;;;;;;7.57;4.20;;;16.20;99.90;;;;;;5066021;28;20446;-74
2021/08/29 07:33:49;;;;;;;3.90;2.80;;;16.20;99.90;;;;;;5065558;28;20951;-73
2021/08/29 07:36:16;;;;;;;3.90;2.40;;;16.20;99.90;;;;;;5066409;28;20552;-77
2021/08/29 07:38:43;;;;;;;4.70;3.40;;;16.20;99.90;;;;;;5059523;28;20525;-76
2021/08/29 07:41:10;;;;;;;4.43;2.70;;;16.10;99.90;;;;;;5063614;28;20657;-76
2021/08/29 07:43:37;;;;;;;6.60;2.83;;;16.10;99.90;;;;;;5066342;28;20462;-73
2021/08/29 07:46:06;;;;;;;4.70;3.20;;;16.00;99.90;;;;;;5066487;28;20451;-73
2021/08/29 07:48:33;;;;;;;6.10;3.20;;;16.00;99.90;;;;;;5067589;28;20439;-77
2021/08/29 07:51:00;;;;;;;4.17;2.70;;;16.10;99.90;;;;;;5083044;28;20441;-77
2021/08/29 07:53:27;;;;;;;6.43;3.07;;;16.10;99.90;;;;;;5077547;28;20467;-73
2021/08/29 07:55:54;;;;;;;7.93;3.90;;;16.20;99.90;;;;;;5069647;28;20489;-75
2021/08/29 07:58:21;;;;;;;3.63;3.30;;;16.20;99.90;;;;;;5076590;28;20880;-73
2021/08/29 08:00:48;;;;;;;3.37;2.70;;;16.20;99.90;;;;;;5081870;28;20458;-74
2021/08/29 08:03:21;;;;;;;2.90;2.47;;;16.30;99.90;;;;;;5071493;28;20560;-74
2021/08/29 08:05:48;;;;;;;3.43;2.60;;;16.20;99.90;;;;;;5076423;28;20505;-73
2021/08/29 08:08:15;;;;;;;4.77;2.80;;;16.20;99.90;;;;;;5069823;28;20449;-72
2021/08/29 08:10:42;;;;;;;3.90;3.50;;;16.20;99.90;;;;;;5077188;28;20451;-71
2021/08/29 08:13:09;;;;;;;6.57;2.47;;;16.20;99.90;;;;;;5073444;28;20452;-72
2021/08/29 08:15:36;;;;;;;2.77;1.93;;;16.20;99.90;;;;;;5074730;28;20470;-74
2021/08/29 08:18:04;;;;;;;3.50;2.20;;;16.20;99.90;;;;;;5073190;28;20452;-74
2021/08/29 08:20:33;;;;;;;6.33;2.30;;;16.10;99.90;;;;;;5057124;28;20454;-74
2021/08/29 08:23:01;;;;;;;2.73;2.03;;;16.10;99.90;;;;;;5069736;28;21074;-73
2021/08/29 08:25:30;;;;;;;3.10;2.27;;;16.20;99.90;;;;;;5072150;28;20495;-75
2021/08/29 08:27:57;;;;;;;3.77;2.27;;;16.10;99.90;;;;;;5061594;28;20465;-75
2021/08/29 08:30:24;;;;;;;3.73;2.40;;;16.20;99.90;;;;;;5063938;28;20455;-72
2021/08/29 08:32:51;;;;;;;3.90;2.20;;;16.30;99.90;;;;;;5060727;28;20536;-77
2021/08/29 08:35:18;;;;;;;2.73;2.43;;;16.30;99.90;;;;;;5066593;28;20513;-72
2021/08/29 08:37:47;;;;;;;4.60;2.37;;;16.10;99.90;;;;;;5064958;28;20450;-75
2021/08/29 08:40:14;;;;;;;2.40;1.77;;;16.10;99.90;;;;;;5067592;28;20455;-76
2021/08/29 08:42:42;;;;;;;5.07;2.00;;;16.10;99.90;;;;;;5069984;28;26134;-74
2021/08/29 08:45:09;;;;;;;2.47;1.90;;;16.10;99.90;;;;;;5069775;28;20482;-74
2021/08/29 08:47:41;;;;;;;7.00;2.63;;;16.10;99.90;;;;;;5059878;28;20458;-74
2021/08/29 08:50:09;;;;;;;4.00;2.27;;;16.00;99.90;;;;;;5062251;28;20482;-77
2021/08/29 08:52:38;;;;;;;2.97;1.40;;;16.10;99.90;;;;;;5070043;28;20961;-77
2021/08/29 08:55:08;;;;;;;2.80;1.90;;;16.10;99.90;;;;;;5072926;28;21028;-73
2021/08/29 08:57:35;;;;;;;2.40;1.60;;;16.20;99.90;;;;;;5065147;28;20520;-74
2021/08/29 09:00:03;;;;;;;2.07;1.57;;;16.20;99.90;;;;;;5059748;28;20465;-73
2021/08/29 09:02:30;;;;;;;2.63;2.03;;;16.30;99.90;;;;;;5066602;28;20482;-72
2021/08/29 09:04:57;;;;;;;2.73;1.83;;;16.40;99.90;;;;;;5064603;28;20478;-73
2021/08/29 09:07:24;;;;;;;2.47;1.80;;;16.40;99.90;;;;;;5054818;28;20459;-71
2021/08/29 09:09:51;;;;;;;2.10;1.97;;;16.40;99.90;;;;;;5064667;28;20970;-70
2021/08/29 09:12:20;;;;;;;3.13;2.10;;;16.50;99.90;;;;;;5066124;28;20529;-70
2021/08/29 09:14:49;;;;;;;3.00;2.23;;;16.60;99.90;;;;;;5059726;28;20479;-70
2021/08/29 09:17:24;;;;;;;4.57;1.87;;;16.50;99.90;;;;;;5068694;28;20440;-72
2021/08/29 09:19:52;;;;;;;1.90;1.63;;;16.70;99.90;;;;;;5057324;28;20446;-71
2021/08/29 09:22:26;;;;;;;3.07;2.10;;;16.70;99.90;;;;;;5064925;28;20516;-74
2021/08/29 09:24:54;;;;;;;2.30;1.57;;;16.60;99.90;;;;;;5062274;28;20479;-75
2021/08/29 09:27:25;;;;;;;2.53;1.77;;;16.50;99.90;;;;;;5062040;28;20542;-71
2021/08/29 09:29:52;;;;;;;2.63;1.53;;;16.70;99.90;;;;;;5062768;28;20448;-71
2021/08/29 09:32:20;;;;;;;4.17;2.70;;;16.70;99.90;;;;;;5059625;28;20545;-72
2021/08/29 09:34:58;;;;;;;2.60;1.70;;;16.70;99.90;;;;;;5069309;28;20486;-76
2021/08/29 09:37:25;;;;;;;3.33;1.53;;;16.80;99.90;;;;;;5073073;28;20942;-71
2021/08/29 09:40:12;;;;;;;7.87;5.10;;;16.80;99.90;;;;;;5065780;28;20450;-73
2021/08/29 09:42:42;;;;;;;2.13;1.90;;;16.60;99.90;;;;;;5061408;28;20532;-73
2021/08/29 09:45:10;;;;;;;4.63;2.13;;;16.50;99.90;;;;;;5069707;28;20498;-78
2021/08/29 09:47:37;;;;;;;2.00;1.47;;;16.30;99.90;;;;;;5066253;28;20499;-73
2021/08/29 09:50:06;;;;;;;1.70;1.17;;;16.50;99.90;;;;;;5058013;28;20902;-73
2021/08/29 09:52:33;;;;;;;1.77;1.57;;;16.60;99.90;;;;;;5056926;28;20465;-77
2021/08/29 09:55:00;;;;;;;2.90;1.50;;;16.70;99.90;;;;;;5065673;28;20577;-72
2021/08/29 09:57:27;;;;;;;2.50;1.23;;;16.80;99.90;;;;;;5064662;28;20507;-71
2021/08/29 09:59:57;;;;;;;1.90;1.20;;;16.70;99.90;;;;;;5060463;28;20828;-72
2021/08/29 10:02:25;;;;;;;1.87;1.53;;;16.80;99.90;;;;;;5059593;28;20486;-71
2021/08/29 10:05:15;;;;;;;1.63;1.13;;;16.80;99.90;;;;;;5061625;28;20481;-70
2021/08/29 10:07:58;;;;;;;2.70;2.50;;;16.80;99.90;;;;;;5065761;28;20545;-71
2021/08/29 10:10:28;;;;;;;1.40;1.30;;;16.80;99.90;;;;;;5065687;28;20451;-75
2021/08/29 10:12:56;;;;;;;2.83;1.40;;;16.80;99.90;;;;;;5062957;28;20470;-74
2021/08/29 10:15:25;;;;;;;2.13;1.80;;;16.70;99.90;;;;;;5062962;28;21069;-74
2021/08/29 10:17:55;;;;;;;1.63;1.20;;;16.70;99.90;;;;;;5051739;28;20487;-73
2021/08/29 10:20:24;;;;;;;3.33;1.93;;;16.90;99.90;;;;;;5052285;28;20976;-73
2021/08/29 10:22:52;;;;;;;1.90;1.40;;;17.00;99.90;;;;;;5068554;28;20479;-75
2021/08/29 10:25:20;;;;;;;2.10;1.50;;;17.20;99.90;;;;;;5068343;28;21062;-73
2021/08/29 10:27:52;;;;;;;1.50;1.40;;;17.00;99.90;;;;;;5058372;28;20456;-73
2021/08/29 10:30:21;;;;;;;1.23;1.00;;;17.10;99.90;;;;;;5059834;28;20526;-73
2021/08/29 10:32:53;;;;;;;1.63;1.27;;;17.10;99.90;;;;;;5067939;28;20528;-76
2021/08/29 10:35:23;;;;;;;4.33;1.40;;;17.20;99.90;;;;;;5070970;28;20957;-75
2021/08/29 10:37:50;;;;;;;1.40;1.30;;;17.20;99.90;;;;;;5065819;28;20478;-77
2021/08/29 10:40:18;;;;;;;1.83;1.30;;;17.30;99.90;;;;;;5063043;28;20462;-73
2021/08/29 10:42:45;;;;;;;1.60;1.20;;;17.30;99.90;;;;;;5066898;28;20478;-75
2021/08/29 10:45:14;;;;;;;1.50;1.27;;;17.30;99.90;;;;;;5059236;28;20555;-71
2021/08/29 10:47:45;;;;;;;1.50;1.30;;;16.90;99.90;;;;;;5060524;28;20470;-77
2021/08/29 10:50:18;;;;;;;1.37;1.20;;;16.90;99.90;;;;;;5060851;28;20534;-74
2021/08/29 10:52:46;;;;;;;1.70;1.30;;;16.90;99.90;;;;;;5059883;28;20446;-78
2021/08/29 10:55:18;;;;;;;2.33;1.50;;;17.10;99.90;;;;;;5063010;28;21046;-78
2021/08/29 10:57:47;;;;;;;1.50;1.20;;;17.20;99.90;;;;;;5066175;28;20456;-77
2021/08/29 11:00:17;;;;;;;1.70;1.53;;;17.30;99.90;;;;;;5080294;28;20444;-77
2021/08/29 11:02:46;;;;;;;1.90;1.30;;;17.30;99.90;;;;;;5073790;28;20485;-72
2021/08/29 11:05:18;;;;;;;1.53;1.10;;;17.40;99.90;;;;;;5065106;28;20475;-73
2021/08/29 11:07:50;;;;;;;2.83;1.40;;;17.40;99.90;;;;;;5068722;28;20478;-72
2021/08/29 11:10:42;;;;;;;1.90;1.37;;;17.40;99.90;;;;;;5070363;28;20500;-73
2021/08/29 11:13:34;;;;;;;5.10;1.83;;;17.50;99.90;;;;;;5059219;28;20495;-73
2021/08/29 11:16:31;;;;;;;2.67;2.00;;;17.40;99.90;;;;;;5059726;28;20487;-73
2021/08/29 11:19:37;;;;;;;3.03;2.33;;;17.50;99.90;;;;;;5065441;28;20458;-73
2021/08/29 11:22:22;;;;;;;2.33;1.83;;;17.40;99.90;;;;;;5060696;28;20473;-75
2021/08/29 11:24:53;;;;;;;2.30;1.73;;;17.60;99.90;;;;;;5065680;28;20518;-72
2021/08/29 11:27:52;;;;;;;2.70;1.57;;;17.90;99.90;;;;;;5060990;28;20555;-73
2021/08/29 11:30:21;;;;;;;1.83;1.50;;;18.00;99.90;;;;;;5069439;28;20495;-73
2021/08/29 11:33:03;;;;;;;4.30;1.83;;;18.00;99.90;;;;;;5072074;28;20435;-76
2021/08/29 11:35:32;;;;;;;2.33;1.73;;;17.80;99.90;;;;;;5072322;28;20470;-77
2021/08/29 11:38:10;;;;;;;3.30;2.53;;;17.80;99.90;;;;;;5070541;28;20513;-73
2021/08/29 11:40:59;;;;;;;3.63;2.37;;;17.80;99.90;;;;;;5072325;28;20460;-76
2021/08/29 11:43:36;;;;;;;1.97;1.77;;;17.60;99.90;;;;;;5068684;28;20478;-72
2021/08/29 11:46:10;;;;;;;2.80;2.00;;;17.50;99.90;;;;;;5074387;28;21012;-75
2021/08/29 11:48:48;;;;;;;3.53;2.27;;;17.30;99.90;;;;;;5071296;28;20596;-76
2021/08/29 11:51:23;;;;;;;3.20;2.50;;;17.40;99.90;;;;;;5073979;28;20489;-72
2021/08/29 11:53:52;;;;;;;5.50;2.70;;;17.50;99.90;;;;;;5072583;28;20442;-74
2021/08/29 11:56:19;;;;;;;4.13;2.50;;;17.50;99.90;;;;;;5075142;28;20451;-71
2021/08/29 11:58:48;;;;;;;3.37;2.10;;;17.50;99.90;;;;;;5078769;28;20482;-73
2021/08/29 12:01:16;;;;;;;5.20;3.30;;;17.50;99.90;;;;;;5072301;28;20724;-73
2021/08/29 12:03:44;;;;;;;4.10;3.00;;;17.60;99.90;;;;;;5075855;28;20517;-75
2021/08/29 12:06:17;;;;;;;3.87;2.67;;;17.70;99.90;;;;;;5076809;28;20451;-72
2021/08/29 12:09:03;;;;;;;3.23;2.90;;;17.80;99.90;;;;;;5070419;28;20435;-74
2021/08/29 12:11:34;;;;;;;3.10;2.80;;;17.70;99.90;;;;;;5074079;28;20478;-80
2021/08/29 12:14:11;;;;;;;3.13;2.40;;;17.70;99.90;;;;;;5075371;28;20565;-72
2021/08/29 12:16:39;;;;;;;3.63;2.57;;;17.80;99.90;;;;;;5071883;28;20438;-75
2021/08/29 12:19:12;;;;;;;2.90;2.60;;;17.90;99.90;;;;;;5063919;28;20534;-75
2021/08/29 12:21:39;;;;;;;4.13;3.73;;;18.00;99.90;;;;;;5066425;28;20924;-76
2021/08/29 12:24:08;;;;;;;4.80;2.90;;;17.90;99.90;;;;;;5066695;28;20533;-73
2021/08/29 12:26:37;;;;;;;2.80;2.10;;;17.90;99.90;;;;;;5059181;28;20486;-72
2021/08/29 12:29:06;;;;;;;3.03;2.73;;;18.00;99.90;;;;;;5066467;28;20485;-72
2021/08/29 12:31:37;;;;;;;4.23;3.03;;;18.10;99.90;;;;;;5064961;28;20443;-76
2021/08/29 12:34:05;;;;;;;3.67;3.10;;;18.40;99.90;;;;;;5066432;28;20568;-75
2021/08/29 12:36:32;;;;;;;3.90;2.70;;;18.50;99.90;;;;;;5069715;28;21007;-79
2021/08/29 12:39:00;;;;;;;4.37;3.43;;;18.60;99.90;;;;;;5065789;28;20502;-80
2021/08/29 12:41:29;;;;;;;3.90;2.87;;;18.80;99.90;;;;;;5060423;28;20486;-75
2021/08/29 12:44:06;;;;;;;3.13;2.83;;;19.10;99.90;;;;;;5054061;28;21041;-78
2021/08/29 12:46:36;;;;;;;5.30;3.80;;;19.40;99.90;;;;;;5059187;28;20466;-73
2021/08/29 12:49:03;;;;;;;3.97;2.50;;;19.90;99.90;;;;;;5064148;28;20548;-77
2021/08/29 12:51:30;;;;;;;9.80;2.60;;;20.10;99.90;;;;;;5073545;28;20876;-74
2021/08/29 12:54:00;;;;;;;3.03;2.50;;;20.00;99.90;;;;;;5071883;28;21013;-72
2021/08/29 12:56:28;;;;;;;7.33;2.47;;;20.10;99.90;;;;;;5074347;28;20485;-73